createdAt,value
2017-06-17T00:02:24.891Z,15.80
2017-06-17T00:04:54.075Z,15.90
2017-06-17T00:07:22.521Z,15.80
2017-06-17T00:09:50.999Z,15.80
2017-06-17T00:12:19.447Z,15.70
2017-06-17T00:14:48.647Z,15.70
2017-06-17T00:17:17.896Z,15.60
2017-06-17T00:19:46.331Z,15.60
2017-06-17T00:22:15.626Z,15.60
2017-06-17T00:24:44.843Z,15.70
2017-06-17T00:27:13.275Z,15.60
2017-06-17T00:29:41.718Z,15.70
2017-06-17T00:32:10.154Z,15.80
2017-06-17T00:34:38.587Z,15.90
2017-06-17T00:37:07.007Z,15.90
2017-06-17T00:39:35.427Z,15.90
2017-06-17T00:42:03.884Z,15.90
2017-06-17T00:44:33.071Z,15.90
2017-06-17T00:47:01.512Z,15.90
2017-06-17T00:49:29.946Z,16.00
2017-06-17T00:51:58.359Z,16.00
2017-06-17T00:54:26.803Z,15.90
2017-06-17T00:56:55.232Z,15.90
2017-06-17T00:59:23.665Z,15.80
2017-06-17T01:01:52.163Z,15.80
2017-06-17T01:04:21.496Z,15.80
2017-06-17T01:06:49.910Z,15.80
2017-06-17T01:09:18.343Z,15.80
2017-06-17T01:11:47.020Z,15.80
2017-06-17T01:14:16.216Z,15.80
2017-06-17T01:16:45.439Z,15.60
2017-06-17T01:19:13.870Z,15.60
2017-06-17T01:21:42.294Z,15.60
2017-06-17T01:24:10.731Z,15.70
2017-06-17T01:26:39.162Z,15.70
2017-06-17T01:29:08.503Z,15.60
2017-06-17T01:31:36.922Z,15.60
2017-06-17T01:34:06.175Z,15.60
2017-06-17T01:36:34.614Z,15.50
2017-06-17T01:39:03.463Z,15.60
2017-06-17T01:41:31.902Z,15.50
2017-06-17T01:44:00.379Z,15.40
2017-06-17T01:46:28.819Z,15.40
2017-06-17T01:48:57.928Z,15.40
2017-06-17T01:51:27.131Z,15.40
2017-06-17T01:53:55.962Z,15.30
2017-06-17T01:56:23.710Z,15.30
2017-06-17T01:58:52.143Z,15.30
2017-06-17T02:01:20.609Z,15.20
2017-06-17T02:03:49.164Z,15.20
2017-06-17T02:06:17.619Z,15.10
2017-06-17T02:08:46.824Z,15.10
2017-06-17T02:11:15.959Z,15.10
2017-06-17T02:13:44.470Z,15.10
2017-06-17T02:16:13.087Z,15.10
2017-06-17T02:18:42.286Z,15.10
2017-06-17T02:21:16.880Z,14.90
2017-06-17T02:23:45.331Z,15.00
2017-06-17T02:26:13.751Z,15.10
2017-06-17T02:28:42.179Z,15.00
2017-06-17T02:31:10.615Z,15.10
2017-06-17T02:33:39.074Z,15.10
2017-06-17T02:36:07.506Z,15.00
2017-06-17T02:38:36.713Z,15.10
2017-06-17T02:41:05.899Z,15.20
2017-06-17T02:43:35.087Z,15.20
2017-06-17T02:46:04.298Z,15.10
2017-06-17T02:48:33.487Z,14.90
2017-06-17T02:51:02.323Z,14.90
2017-06-17T02:53:30.743Z,14.80
2017-06-17T02:55:59.172Z,14.90
2017-06-17T02:58:27.604Z,14.80
2017-06-17T03:00:56.026Z,14.80
2017-06-17T03:03:24.475Z,14.80
2017-06-17T03:05:52.909Z,14.90
2017-06-17T03:08:21.338Z,14.80
2017-06-17T03:10:49.808Z,14.80
2017-06-17T03:13:18.335Z,14.80
2017-06-17T03:15:46.801Z,14.80
2017-06-17T03:18:16.141Z,14.80
2017-06-17T03:20:44.563Z,14.80
2017-06-17T03:23:13.083Z,14.70
2017-06-17T03:25:41.507Z,14.60
2017-06-17T03:28:09.923Z,14.50
2017-06-17T03:30:39.134Z,14.60
2017-06-17T03:33:07.565Z,14.60
2017-06-17T03:35:36.000Z,14.70
2017-06-17T03:38:05.191Z,14.60
2017-06-17T03:40:34.399Z,14.70
2017-06-17T03:43:02.827Z,14.70
2017-06-17T03:45:31.271Z,14.60
2017-06-17T03:47:59.704Z,14.60
2017-06-17T03:50:28.944Z,14.60
2017-06-17T03:52:57.383Z,14.50
2017-06-17T03:55:25.831Z,14.60
2017-06-17T03:57:54.257Z,14.60
2017-06-17T04:00:22.766Z,14.60
2017-06-17T04:02:51.251Z,14.30
2017-06-17T04:05:20.468Z,14.60
2017-06-17T04:07:48.910Z,14.50
2017-06-17T04:10:18.108Z,14.60
2017-06-17T04:12:46.522Z,14.60
2017-06-17T04:15:14.972Z,14.60
2017-06-17T04:17:43.391Z,14.50
2017-06-17T04:20:11.898Z,14.60
2017-06-17T04:22:40.390Z,14.60
2017-06-17T04:25:08.823Z,14.70
2017-06-17T04:27:37.267Z,14.50
2017-06-17T04:30:05.690Z,14.50
2017-06-17T04:32:34.132Z,14.70
2017-06-17T04:35:02.613Z,14.80
2017-06-17T04:37:31.043Z,14.90
2017-06-17T04:39:59.467Z,14.80
2017-06-17T04:42:27.891Z,14.80
2017-06-17T04:44:56.330Z,14.80
2017-06-17T04:47:24.752Z,14.70
2017-06-17T04:49:53.202Z,14.70
2017-06-17T04:52:21.635Z,14.60
2017-06-17T04:54:50.080Z,14.60
2017-06-17T04:57:19.291Z,14.80
2017-06-17T04:59:48.514Z,14.70
2017-06-17T05:02:17.726Z,14.60
2017-06-17T05:04:46.931Z,14.80
2017-06-17T05:07:15.384Z,14.70
2017-06-17T05:09:43.899Z,14.80
2017-06-17T05:12:12.336Z,14.80
2017-06-17T05:14:41.526Z,14.90
2017-06-17T05:17:10.910Z,14.80
2017-06-17T05:19:39.362Z,11.30
2017-06-17T05:22:07.791Z,14.80
2017-06-17T05:24:36.998Z,15.20
2017-06-17T05:27:06.200Z,15.10
2017-06-17T05:29:35.519Z,15.00
2017-06-17T05:32:03.958Z,15.00
2017-06-17T05:34:32.385Z,15.10
2017-06-17T05:37:00.863Z,15.10
2017-06-17T05:39:29.299Z,15.30
2017-06-17T05:41:57.729Z,15.20
2017-06-17T05:44:26.192Z,15.40
2017-06-17T05:46:55.387Z,15.50
2017-06-17T05:49:24.655Z,15.30
2017-06-17T05:51:53.096Z,15.30
2017-06-17T05:54:21.526Z,15.40
2017-06-17T05:56:49.986Z,15.20
2017-06-17T05:59:19.247Z,15.50
2017-06-17T06:01:47.708Z,15.50
2017-06-17T06:04:16.911Z,15.70
2017-06-17T06:06:46.099Z,15.70
2017-06-17T06:09:14.552Z,16.00
2017-06-17T06:11:42.984Z,15.70
2017-06-17T06:14:12.200Z,15.60
2017-06-17T06:16:40.775Z,15.70
2017-06-17T06:19:09.236Z,15.30
2017-06-17T06:21:38.431Z,15.30
2017-06-17T06:24:06.863Z,15.30
2017-06-17T06:26:35.246Z,15.20
2017-06-17T06:29:03.670Z,15.30
2017-06-17T06:31:32.134Z,15.50
2017-06-17T06:34:00.561Z,15.50
2017-06-17T06:36:29.004Z,16.00
2017-06-17T06:38:57.432Z,15.80
2017-06-17T06:41:25.867Z,15.90
2017-06-17T06:43:54.395Z,15.90
2017-06-17T06:46:22.906Z,15.90
2017-06-17T06:48:51.747Z,15.50
2017-06-17T06:51:20.995Z,15.20
2017-06-17T06:53:49.542Z,15.20
2017-06-17T06:56:18.739Z,15.30
2017-06-17T06:58:48.078Z,15.30
2017-06-17T07:01:16.772Z,15.40
2017-06-17T07:03:45.945Z,15.40
2017-06-17T07:06:14.403Z,15.60
2017-06-17T07:08:43.611Z,15.40
2017-06-17T07:11:12.430Z,15.50
2017-06-17T07:13:40.876Z,15.80
2017-06-17T07:16:09.687Z,15.80
2017-06-17T07:18:38.891Z,16.00
2017-06-17T07:21:07.725Z,15.90
2017-06-17T07:23:36.645Z,15.70
2017-06-17T07:26:05.576Z,15.80
2017-06-17T07:28:34.783Z,15.90
2017-06-17T07:31:03.654Z,15.90
2017-06-17T07:33:32.909Z,15.90
2017-06-17T07:36:01.713Z,16.10
2017-06-17T07:38:30.227Z,16.10
2017-06-17T07:40:59.045Z,16.40
2017-06-17T07:43:27.878Z,16.30
2017-06-17T07:45:56.758Z,16.30
2017-06-17T07:48:25.178Z,16.50
2017-06-17T07:50:53.623Z,16.80
2017-06-17T07:53:22.061Z,16.70
2017-06-17T07:55:51.253Z,16.50
2017-06-17T07:58:20.111Z,16.60
2017-06-17T08:00:48.556Z,16.60
2017-06-17T08:03:16.984Z,17.00
2017-06-17T08:05:45.412Z,16.90
2017-06-17T08:08:13.847Z,16.80
2017-06-17T08:10:41.910Z,17.00
2017-06-17T08:13:10.359Z,17.10
2017-06-17T08:15:39.566Z,17.40
2017-06-17T08:18:08.001Z,17.50
2017-06-17T08:20:36.435Z,17.40
2017-06-17T08:23:04.864Z,17.40
2017-06-17T08:25:33.314Z,17.40
2017-06-17T08:28:01.747Z,17.30
2017-06-17T08:30:30.591Z,17.30
2017-06-17T08:32:59.601Z,17.10
2017-06-17T08:35:28.957Z,17.10
2017-06-17T08:37:57.795Z,17.20
2017-06-17T08:40:26.619Z,17.50
2017-06-17T08:42:55.054Z,18.00
2017-06-17T08:45:24.419Z,17.80
2017-06-17T08:47:52.846Z,17.60
2017-06-17T08:50:21.675Z,17.60
2017-06-17T08:52:50.100Z,17.70
2017-06-17T08:55:18.971Z,18.00
2017-06-17T08:57:47.390Z,18.00
2017-06-17T09:00:16.247Z,18.10
2017-06-17T09:02:45.095Z,18.00
2017-06-17T09:05:13.540Z,17.90
2017-06-17T09:07:42.385Z,17.30
2017-06-17T09:10:11.194Z,17.20
2017-06-17T09:12:39.632Z,17.50
2017-06-17T09:15:08.459Z,17.60
2017-06-17T09:17:37.296Z,17.70
2017-06-17T09:20:06.487Z,17.80
2017-06-17T09:22:35.347Z,17.90
2017-06-17T09:25:03.780Z,18.10
2017-06-17T09:27:32.684Z,18.10
2017-06-17T09:30:01.121Z,18.50
2017-06-17T09:32:30.340Z,18.70
2017-06-17T09:34:58.819Z,18.30
2017-06-17T09:37:27.816Z,18.60
2017-06-17T09:39:57.037Z,18.90
2017-06-17T09:42:25.859Z,19.10
2017-06-17T09:44:54.695Z,19.00
2017-06-17T09:47:23.131Z,19.20
2017-06-17T09:49:51.957Z,19.20
2017-06-17T09:52:20.876Z,19.10
2017-06-17T09:54:49.448Z,19.10
2017-06-17T09:57:17.907Z,19.00
2017-06-17T09:59:47.136Z,18.70
2017-06-17T10:02:15.600Z,19.00
2017-06-17T10:04:44.499Z,19.20
2017-06-17T10:07:12.936Z,19.40
2017-06-17T10:09:41.390Z,19.60
2017-06-17T10:12:09.832Z,20.10
2017-06-17T10:14:38.278Z,19.60
2017-06-17T10:17:06.699Z,19.40
2017-06-17T10:19:35.539Z,19.40
2017-06-17T10:22:04.358Z,19.00
2017-06-17T10:24:32.772Z,19.20
2017-06-17T10:27:01.613Z,18.70
2017-06-17T10:29:30.042Z,18.80
2017-06-17T10:31:58.475Z,18.80
2017-06-17T10:34:26.918Z,18.80
2017-06-17T10:36:55.458Z,19.00
2017-06-17T10:39:23.915Z,19.10
2017-06-17T10:41:52.771Z,19.20
2017-06-17T10:44:21.212Z,19.50
2017-06-17T10:46:50.314Z,19.60
2017-06-17T10:49:18.783Z,18.90
2017-06-17T10:51:47.222Z,18.90
2017-06-17T10:54:15.663Z,19.30
2017-06-17T10:56:44.080Z,19.70
2017-06-17T10:59:12.511Z,20.00
2017-06-17T11:01:40.944Z,20.50
2017-06-17T11:04:09.391Z,20.50
2017-06-17T11:06:37.836Z,19.70
2017-06-17T11:09:06.274Z,19.80
2017-06-17T11:11:34.702Z,19.90
2017-06-17T11:14:03.128Z,19.90
2017-06-17T11:16:31.599Z,19.80
2017-06-17T11:19:00.443Z,19.90
2017-06-17T11:21:28.905Z,20.00
2017-06-17T11:23:58.794Z,19.60
2017-06-17T11:26:27.227Z,19.80
2017-06-17T11:28:55.785Z,20.30
2017-06-17T11:31:24.216Z,20.50
2017-06-17T11:33:52.671Z,20.40
2017-06-17T11:36:21.148Z,20.30
2017-06-17T11:38:49.586Z,20.40
2017-06-17T11:41:18.006Z,20.60
2017-06-17T11:43:46.843Z,20.60
2017-06-17T11:46:15.284Z,20.80
2017-06-17T11:48:44.115Z,20.70
2017-06-17T11:51:12.572Z,21.20
2017-06-17T11:53:41.016Z,21.60
2017-06-17T11:56:09.470Z,21.30
2017-06-17T11:58:37.911Z,21.70
2017-06-17T12:01:06.339Z,21.70
2017-06-17T12:03:34.771Z,21.60
2017-06-17T12:06:03.220Z,21.70
2017-06-17T12:08:32.087Z,22.00
2017-06-17T12:11:00.539Z,21.90
2017-06-17T12:13:29.759Z,22.20
2017-06-17T12:15:58.242Z,22.60
2017-06-17T12:18:26.684Z,23.10
2017-06-17T12:20:55.111Z,22.90
2017-06-17T12:23:23.630Z,22.90
2017-06-17T12:25:52.079Z,22.20
2017-06-17T12:28:20.507Z,22.30
2017-06-17T12:30:48.980Z,22.50
2017-06-17T12:33:17.447Z,22.60
2017-06-17T12:35:45.916Z,22.50
2017-06-17T12:38:14.347Z,22.40
2017-06-17T12:40:42.844Z,21.70
2017-06-17T12:43:11.266Z,21.70
2017-06-17T12:45:39.881Z,21.70
2017-06-17T12:48:08.343Z,22.10
2017-06-17T12:50:36.767Z,22.10
2017-06-17T12:53:05.211Z,22.00
2017-06-17T12:55:33.647Z,22.30
2017-06-17T12:58:02.092Z,21.80
2017-06-17T13:00:30.533Z,21.70
2017-06-17T13:02:58.963Z,21.40
2017-06-17T13:05:27.398Z,21.60
2017-06-17T13:07:55.831Z,21.60
2017-06-17T13:10:24.290Z,21.50
2017-06-17T13:12:53.495Z,21.60
2017-06-17T13:15:21.944Z,21.30
2017-06-17T13:17:50.399Z,21.20
2017-06-17T13:20:18.847Z,21.00
2017-06-17T13:22:47.272Z,21.60
2017-06-17T13:25:15.760Z,22.00
2017-06-17T13:27:44.226Z,22.00
2017-06-17T13:30:12.655Z,21.20
2017-06-17T13:32:41.093Z,21.30
2017-06-17T13:35:09.564Z,21.20
2017-06-17T13:37:37.990Z,21.40
2017-06-17T13:40:06.434Z,21.10
2017-06-17T13:42:34.868Z,21.40
2017-06-17T13:45:03.302Z,21.20
2017-06-17T13:47:31.755Z,21.10
2017-06-17T13:50:00.196Z,21.10
2017-06-17T13:52:29.032Z,21.90
2017-06-17T13:54:57.613Z,21.90
2017-06-17T13:57:26.058Z,22.20
2017-06-17T13:59:54.572Z,21.70
2017-06-17T14:02:23.002Z,21.30
2017-06-17T14:04:51.596Z,21.50
2017-06-17T14:07:20.124Z,21.60
2017-06-17T14:09:48.584Z,22.30
2017-06-17T14:12:17.015Z,22.10
2017-06-17T14:14:45.833Z,21.60
2017-06-17T14:17:14.263Z,21.60
2017-06-17T14:19:42.720Z,21.60
2017-06-17T14:22:17.272Z,21.80
2017-06-17T14:24:45.717Z,21.70
2017-06-17T14:27:14.145Z,22.20
2017-06-17T14:32:02.983Z,22.10
2017-06-17T14:34:31.572Z,22.00
2017-06-17T14:37:00.027Z,21.90
2017-06-17T14:39:28.491Z,21.80
2017-06-17T14:41:57.736Z,21.80
2017-06-17T14:44:26.148Z,21.70
2017-06-17T14:46:54.589Z,21.70
2017-06-17T14:49:23.056Z,21.60
2017-06-17T14:51:51.530Z,21.60
2017-06-17T14:54:19.975Z,21.80
2017-06-17T14:56:48.412Z,21.80
2017-06-17T14:59:16.856Z,21.30
2017-06-17T15:01:45.318Z,21.00
2017-06-17T15:04:13.733Z,20.90
2017-06-17T15:06:42.855Z,21.20
2017-06-17T15:09:11.282Z,21.40
2017-06-17T15:11:39.729Z,21.40
2017-06-17T15:14:08.179Z,21.50
2017-06-17T15:16:36.646Z,21.30
2017-06-17T15:19:05.072Z,21.10
2017-06-17T15:21:33.528Z,20.80
2017-06-17T15:24:01.963Z,20.60
2017-06-17T15:26:30.387Z,20.60
2017-06-17T15:28:59.213Z,20.40
2017-06-17T15:31:27.664Z,20.40
2017-06-17T15:33:56.103Z,20.50
2017-06-17T15:36:24.519Z,20.80
2017-06-17T15:38:52.959Z,20.70
2017-06-17T15:41:21.384Z,20.80
2017-06-17T15:43:49.842Z,20.90
2017-06-17T15:46:18.263Z,21.00
2017-06-17T15:48:46.491Z,20.60
2017-06-17T15:51:14.945Z,20.50
2017-06-17T15:53:43.410Z,20.70
2017-06-17T15:56:11.831Z,20.50
2017-06-17T15:58:40.682Z,20.40
2017-06-17T16:01:10.062Z,24.60
2017-06-17T16:03:38.889Z,20.50
2017-06-17T16:06:07.986Z,20.40
2017-06-17T16:08:37.202Z,20.40
2017-06-17T16:11:06.184Z,20.40
2017-06-17T16:13:35.366Z,20.30
2017-06-17T16:16:04.541Z,20.30
2017-06-17T16:18:33.650Z,20.30
2017-06-17T16:21:02.728Z,20.00
2017-06-17T16:23:31.756Z,20.10
2017-06-17T16:26:00.815Z,20.00
2017-06-17T16:28:30.041Z,19.70
2017-06-17T16:30:59.547Z,19.70
2017-06-17T16:33:28.513Z,19.80
2017-06-17T16:35:57.604Z,20.00
2017-06-17T16:38:26.795Z,20.10
2017-06-17T16:40:55.896Z,20.10
2017-06-17T16:43:24.973Z,20.30
2017-06-17T16:45:54.472Z,20.30
2017-06-17T16:48:23.760Z,20.40
2017-06-17T16:50:52.781Z,20.30
2017-06-17T16:53:21.955Z,20.40
2017-06-17T16:55:50.424Z,20.50
2017-06-17T16:58:20.016Z,20.20
2017-06-17T17:00:49.061Z,20.10
2017-06-17T17:03:18.687Z,19.90
2017-06-17T17:05:48.233Z,19.90
2017-06-17T17:08:17.723Z,19.80
2017-06-17T17:10:46.885Z,19.90
2017-06-17T17:13:16.129Z,19.80
2017-06-17T17:15:46.011Z,19.90
2017-06-17T17:18:15.860Z,19.90
2017-06-17T17:20:44.896Z,19.90
2017-06-17T17:23:14.171Z,19.90
2017-06-17T17:25:43.669Z,19.80
2017-06-17T17:28:12.782Z,19.60
2017-06-17T17:30:42.012Z,19.60
2017-06-17T17:33:11.441Z,19.40
2017-06-17T17:35:40.961Z,19.40
2017-06-17T17:38:10.016Z,19.50
2017-06-17T17:40:40.000Z,19.40
2017-06-17T17:43:09.466Z,19.50
2017-06-17T17:45:39.438Z,19.40
2017-06-17T17:48:08.882Z,19.30
2017-06-17T17:50:37.918Z,19.30
2017-06-17T17:53:07.029Z,19.30
2017-06-17T17:55:36.783Z,19.20
2017-06-17T17:58:05.905Z,19.10
2017-06-17T18:00:35.746Z,19.10
2017-06-17T18:03:04.922Z,19.10
2017-06-17T18:05:34.187Z,19.00
2017-06-17T18:08:03.329Z,19.10
2017-06-17T18:10:33.151Z,19.20
2017-06-17T18:13:02.300Z,19.10
2017-06-17T18:15:32.075Z,19.10
2017-06-17T18:18:01.275Z,19.00
2017-06-17T18:20:31.158Z,18.90
2017-06-17T18:23:00.317Z,19.00
2017-06-17T18:25:29.373Z,19.00
2017-06-17T18:27:58.460Z,19.00
2017-06-17T18:30:28.305Z,19.00
2017-06-17T18:32:57.371Z,19.00
2017-06-17T18:35:27.309Z,19.00
2017-06-17T18:37:56.470Z,18.90
2017-06-17T18:40:26.430Z,18.90
2017-06-17T18:42:55.750Z,18.90
2017-06-17T18:45:24.178Z,18.80
2017-06-17T18:47:53.372Z,18.90
2017-06-17T18:50:22.997Z,18.80
2017-06-17T18:52:52.162Z,18.70
2017-06-17T18:55:21.281Z,18.70
2017-06-17T18:57:52.031Z,18.60
2017-06-17T19:00:21.470Z,18.50
2017-06-17T19:02:50.702Z,18.50
2017-06-17T19:05:19.687Z,18.50
2017-06-17T19:07:48.687Z,18.50
2017-06-17T19:10:17.838Z,18.50
2017-06-17T19:12:47.827Z,18.60
2017-06-17T19:15:16.972Z,18.50
2017-06-17T19:17:46.787Z,18.50
2017-06-17T19:20:16.271Z,18.50
2017-06-17T19:22:45.236Z,18.40
2017-06-17T19:25:14.482Z,18.50
2017-06-17T19:27:43.595Z,18.40
2017-06-17T19:30:12.611Z,18.30
2017-06-17T19:32:41.741Z,18.40
2017-06-17T19:35:10.888Z,18.40
2017-06-17T19:37:39.814Z,18.40
2017-06-17T19:40:08.880Z,18.50
2017-06-17T19:42:37.853Z,18.40
2017-06-17T19:45:07.032Z,18.50
2017-06-17T19:47:36.021Z,18.50
2017-06-17T19:50:05.121Z,18.40
2017-06-17T19:52:35.016Z,18.40
2017-06-17T19:55:03.934Z,18.40
2017-06-17T19:57:33.275Z,18.40
2017-06-17T20:00:03.121Z,18.40
2017-06-17T20:02:32.204Z,18.30
2017-06-17T20:05:02.241Z,18.30
2017-06-17T20:07:32.066Z,18.30
2017-06-17T20:10:01.129Z,18.30
2017-06-17T20:12:30.181Z,18.30
2017-06-17T20:15:00.038Z,18.30
2017-06-17T20:17:29.069Z,18.30
2017-06-17T20:19:58.115Z,18.30
2017-06-17T20:22:33.304Z,18.30
2017-06-17T20:25:03.098Z,18.20
2017-06-17T20:27:32.480Z,18.10
2017-06-17T20:30:01.936Z,18.10
2017-06-17T20:32:31.232Z,18.00
2017-06-17T20:35:00.279Z,18.00
2017-06-17T20:37:30.125Z,18.00
2017-06-17T20:39:59.091Z,18.00
2017-06-17T20:42:28.329Z,18.00
2017-06-17T20:44:57.269Z,18.00
2017-06-17T20:47:26.989Z,18.00
2017-06-17T20:49:56.291Z,18.00
2017-06-17T20:52:26.945Z,18.00
2017-06-17T20:54:56.074Z,18.00
2017-06-17T20:57:25.209Z,17.90
2017-06-17T20:59:55.054Z,17.90
2017-06-17T21:02:24.149Z,17.90
2017-06-17T21:04:53.199Z,18.00
2017-06-17T21:07:22.261Z,17.90
2017-06-17T21:09:51.397Z,17.90
2017-06-17T21:12:20.694Z,17.90
2017-06-17T21:14:49.734Z,17.90
2017-06-17T21:17:19.593Z,17.90
2017-06-17T21:19:48.999Z,17.90
2017-06-17T21:22:18.176Z,18.00
2017-06-17T21:24:47.546Z,17.90
2017-06-17T21:27:16.992Z,17.90
2017-06-17T21:29:46.154Z,17.90
2017-06-17T21:32:15.261Z,18.00
2017-06-17T21:34:44.426Z,17.90
2017-06-17T21:37:13.954Z,17.90
2017-06-17T21:39:42.947Z,17.90
2017-06-17T21:42:12.075Z,17.90
2017-06-17T21:44:41.255Z,17.80
2017-06-17T21:47:10.335Z,17.80
2017-06-17T21:49:40.468Z,17.80
2017-06-17T21:52:10.515Z,17.90
2017-06-17T21:54:40.445Z,17.80
2017-06-17T21:57:09.430Z,17.80
2017-06-17T21:59:38.397Z,17.80
2017-06-17T22:02:07.278Z,17.80
2017-06-17T22:04:36.539Z,17.70
2017-06-17T22:07:05.608Z,17.70
2017-06-17T22:09:35.110Z,17.70
2017-06-17T22:12:04.282Z,17.70
2017-06-17T22:14:33.385Z,17.70
2017-06-17T22:17:02.534Z,17.70
2017-06-17T22:19:32.224Z,17.70
2017-06-17T22:22:00.948Z,17.70
2017-06-17T22:24:30.417Z,17.70
2017-06-17T22:27:00.434Z,17.70
2017-06-17T22:29:29.546Z,17.70
2017-06-17T22:31:58.685Z,17.70
2017-06-17T22:34:28.659Z,17.60
2017-06-17T22:36:58.433Z,17.60
2017-06-17T22:39:27.573Z,17.60
2017-06-17T22:41:56.599Z,17.60
2017-06-17T22:44:25.751Z,17.60
2017-06-17T22:46:55.566Z,17.60
2017-06-17T22:49:24.685Z,17.70
2017-06-17T22:51:53.822Z,17.70
2017-06-17T22:54:23.501Z,17.60
2017-06-17T22:56:52.512Z,17.60
2017-06-17T22:59:21.556Z,17.60
2017-06-17T23:01:50.691Z,17.60
2017-06-17T23:04:20.442Z,17.60
2017-06-17T23:06:49.488Z,17.60
2017-06-17T23:09:18.468Z,17.60
2017-06-17T23:11:47.603Z,17.60
2017-06-17T23:14:16.703Z,17.60
2017-06-17T23:16:45.947Z,17.50
2017-06-17T23:19:15.822Z,17.50
2017-06-17T23:21:45.676Z,17.50
2017-06-17T23:24:15.664Z,17.40
2017-06-17T23:26:44.787Z,17.50
2017-06-17T23:29:14.588Z,17.50
2017-06-17T23:31:43.817Z,17.40
2017-06-17T23:34:12.830Z,17.40
2017-06-17T23:36:41.770Z,17.50
2017-06-17T23:39:10.782Z,17.50
2017-06-17T23:41:39.860Z,17.50
2017-06-17T23:44:08.899Z,17.50
2017-06-17T23:46:38.103Z,17.40
2017-06-17T23:49:08.026Z,17.50
2017-06-17T23:51:37.101Z,17.50
2017-06-17T23:54:06.197Z,17.40
2017-06-17T23:56:36.183Z,17.40
2017-06-17T23:59:06.003Z,17.30
